sensor_id;sensor_type;location;lat;lon;timestamp;pressure;altitude;pressure_sealevel;temperature;humidity
75414;BME280;64758;52.122;5.404;2022-12-01T00:00:05;103082.72;;;4.72;100.00
75414;BME280;64758;52.122;5.404;2022-12-01T00:02:32;103073.06;;;4.72;100.00
75414;BME280;64758;52.122;5.404;2022-12-01T00:04:59;103080.66;;;4.77;100.00
75414;BME280;64758;52.122;5.404;2022-12-01T00:07:25;103083.09;;;4.80;100.00
75414;BME280;64758;52.122;5.404;2022-12-01T00:09:52;103075.19;;;4.80;100.00
75414;BME280;64758;52.122;5.404;2022-12-01T00:12:37;103078.50;;;4.83;100.00
75414;BME280;64758;52.122;5.404;2022-12-01T00:15:09;103081.34;;;4.80;100.00
75414;BME280;64758;52.122;5.404;2022-12-01T00:17:37;103072.31;;;4.84;100.00
75414;BME280;64758;52.122;5.404;2022-12-01T00:20:05;103073.13;;;4.85;100.00
75414;BME280;64758;52.122;5.404;2022-12-01T00:22:31;103078.22;;;4.88;100.00
75414;BME280;64758;52.122;5.404;2022-12-01T00:24:58;103067.59;;;4.89;100.00
75414;BME280;64758;52.122;5.404;2022-12-01T00:27:24;103065.16;;;4.86;100.00
75414;BME280;64758;52.122;5.404;2022-12-01T00:29:51;103071.25;;;4.87;100.00
75414;BME280;64758;52.122;5.404;2022-12-01T00:32:17;103072.75;;;4.91;100.00
75414;BME280;64758;52.122;5.404;2022-12-01T00:34:44;103072.00;;;4.89;100.00
75414;BME280;64758;52.122;5.404;2022-12-01T00:37:11;103077.09;;;4.92;100.00
75414;BME280;64758;52.122;5.404;2022-12-01T00:39:37;103070.13;;;4.91;100.00
75414;BME280;64758;52.122;5.404;2022-12-01T00:42:04;103069.19;;;4.92;100.00
75414;BME280;64758;52.122;5.404;2022-12-01T00:44:38;103072.94;;;4.88;100.00
75414;BME280;64758;52.122;5.404;2022-12-01T00:47:04;103069.19;;;4.92;100.00
75414;BME280;64758;52.122;5.404;2022-12-01T00:49:31;103066.53;;;4.92;100.00
75414;BME280;64758;52.122;5.404;2022-12-01T00:51:57;103070.03;;;4.92;100.00
75414;BME280;64758;52.122;5.404;2022-12-01T00:54:24;103066.34;;;4.95;100.00
75414;BME280;64758;52.122;5.404;2022-12-01T00:56:50;103071.44;;;4.97;100.00
75414;BME280;64758;52.122;5.404;2022-12-01T00:59:17;103070.59;;;4.97;100.00
75414;BME280;64758;52.122;5.404;2022-12-01T01:01:44;103069.66;;;4.98;100.00
75414;BME280;64758;52.122;5.404;2022-12-01T01:04:10;103073.88;;;5.00;100.00
75414;BME280;64758;52.122;5.404;2022-12-01T01:06:37;103074.00;;;4.99;100.00
75414;BME280;64758;52.122;5.404;2022-12-01T01:09:03;103069.34;;;5.02;100.00
75414;BME280;64758;52.122;5.404;2022-12-01T01:11:30;103081.38;;;5.06;100.00
75414;BME280;64758;52.122;5.404;2022-12-01T01:13:57;103081.50;;;5.05;100.00
75414;BME280;64758;52.122;5.404;2022-12-01T01:16:24;103081.50;;;5.05;100.00
75414;BME280;64758;52.122;5.404;2022-12-01T01:18:52;103091.84;;;5.08;100.00
75414;BME280;64758;52.122;5.404;2022-12-01T01:21:20;103089.09;;;5.09;100.00
75414;BME280;64758;52.122;5.404;2022-12-01T01:23:48;103089.84;;;5.11;100.00
75414;BME280;64758;52.122;5.404;2022-12-01T01:26:21;103090.78;;;5.10;100.00
75414;BME280;64758;52.122;5.404;2022-12-01T01:28:48;103081.19;;;5.09;100.00
75414;BME280;64758;52.122;5.404;2022-12-01T01:31:18;103084.59;;;5.11;100.00
75414;BME280;64758;52.122;5.404;2022-12-01T01:33:46;103083.53;;;5.14;100.00
75414;BME280;64758;52.122;5.404;2022-12-01T01:36:14;103083.72;;;5.11;100.00
75414;BME280;64758;52.122;5.404;2022-12-01T01:38:41;103086.16;;;5.14;100.00
75414;BME280;64758;52.122;5.404;2022-12-01T01:41:08;103086.16;;;5.14;100.00
75414;BME280;64758;52.122;5.404;2022-12-01T01:43:56;103093.97;;;5.15;100.00
75414;BME280;64758;52.122;5.404;2022-12-01T01:46:31;103092.28;;;5.14;100.00
75414;BME280;64758;52.122;5.404;2022-12-01T01:49:00;103087.66;;;5.18;100.00
75414;BME280;64758;52.122;5.404;2022-12-01T01:51:38;103089.53;;;5.16;100.00
75414;BME280;64758;52.122;5.404;2022-12-01T01:54:09;103094.72;;;5.17;100.00
75414;BME280;64758;52.122;5.404;2022-12-01T01:56:42;103101.88;;;5.15;100.00
75414;BME280;64758;52.122;5.404;2022-12-01T01:59:15;103100.09;;;5.16;100.00
75414;BME280;64758;52.122;5.404;2022-12-01T02:01:47;103086.09;;;5.15;100.00
75414;BME280;64758;52.122;5.404;2022-12-01T02:04:16;103090.28;;;5.18;100.00
75414;BME280;64758;52.122;5.404;2022-12-01T02:06:43;103098.13;;;5.19;100.00
75414;BME280;64758;52.122;5.404;2022-12-01T02:09:10;103102.44;;;5.20;100.00
75414;BME280;64758;52.122;5.404;2022-12-01T02:14:54;103093.59;;;5.21;100.00
75414;BME280;64758;52.122;5.404;2022-12-01T02:17:40;103078.94;;;5.17;100.00
75414;BME280;64758;52.122;5.404;2022-12-01T02:23:23;103084.75;;;5.22;100.00
75414;BME280;64758;52.122;5.404;2022-12-01T02:26:26;103079.69;;;5.19;100.00
75414;BME280;64758;52.122;5.404;2022-12-01T02:31:38;103064.16;;;5.15;100.00
75414;BME280;64758;52.122;5.404;2022-12-01T02:39:34;103063.22;;;5.16;100.00
75414;BME280;64758;52.122;5.404;2022-12-01T02:42:13;103079.75;;;5.18;100.00
75414;BME280;64758;52.122;5.404;2022-12-01T02:45:04;103068.47;;;5.16;100.00
75414;BME280;64758;52.122;5.404;2022-12-01T02:47:36;103071.09;;;5.16;100.00
75414;BME280;64758;52.122;5.404;2022-12-01T02:50:07;103083.44;;;5.15;100.00
75414;BME280;64758;52.122;5.404;2022-12-01T02:52:37;103085.03;;;5.18;100.00
75414;BME280;64758;52.122;5.404;2022-12-01T02:55:04;103086.63;;;5.20;100.00
75414;BME280;64758;52.122;5.404;2022-12-01T02:57:30;103092.00;;;5.19;100.00
75414;BME280;64758;52.122;5.404;2022-12-01T02:59:57;103089.66;;;5.14;100.00
75414;BME280;64758;52.122;5.404;2022-12-01T03:02:40;103089.53;;;5.16;100.00
75414;BME280;64758;52.122;5.404;2022-12-01T03:05:39;103080.91;;;5.14;100.00
75414;BME280;64758;52.122;5.404;2022-12-01T03:08:25;103084.28;;;5.16;100.00
75414;BME280;64758;52.122;5.404;2022-12-01T03:10:58;103087.03;;;5.14;100.00
75414;BME280;64758;52.122;5.404;2022-12-01T03:13:45;103095.47;;;5.19;100.00
75414;BME280;64758;52.122;5.404;2022-12-01T03:19:40;103093.78;;;5.18;100.00
75414;BME280;64758;52.122;5.404;2022-12-01T03:22:17;103091.25;;;5.17;100.00
75414;BME280;64758;52.122;5.404;2022-12-01T03:24:46;103084.19;;;5.17;100.00
75414;BME280;64758;52.122;5.404;2022-12-01T03:27:17;103076.19;;;5.19;100.00
75414;BME280;64758;52.122;5.404;2022-12-01T03:29:49;103080.69;;;5.17;100.00
75414;BME280;64758;52.122;5.404;2022-12-01T03:32:24;103080.81;;;5.15;100.00
75414;BME280;64758;52.122;5.404;2022-12-01T03:35:15;103092.94;;;5.18;100.00
75414;BME280;64758;52.122;5.404;2022-12-01T03:37:52;103085.13;;;5.16;100.00
75414;BME280;64758;52.122;5.404;2022-12-01T03:40:23;103086.28;;;5.12;100.00
75414;BME280;64758;52.122;5.404;2022-12-01T03:42:56;103085.34;;;5.13;100.00
75414;BME280;64758;52.122;5.404;2022-12-01T03:45:33;103085.13;;;5.16;100.00
75414;BME280;64758;52.122;5.404;2022-12-01T03:48:01;103089.53;;;5.16;100.00
75414;BME280;64758;52.122;5.404;2022-12-01T03:50:37;103090.59;;;5.13;100.00
75414;BME280;64758;52.122;5.404;2022-12-01T03:53:16;103094.19;;;5.12;100.00
75414;BME280;64758;52.122;5.404;2022-12-01T03:55:50;103092.38;;;5.13;100.00
75414;BME280;64758;52.122;5.404;2022-12-01T03:58:22;103094.19;;;5.12;100.00
75414;BME280;64758;52.122;5.404;2022-12-01T04:00:51;103083.63;;;5.12;100.00
75414;BME280;64758;52.122;5.404;2022-12-01T04:03:23;103084.69;;;5.10;100.00
75414;BME280;64758;52.122;5.404;2022-12-01T04:05:50;103089.09;;;5.09;100.00
75414;BME280;64758;52.122;5.404;2022-12-01T04:08:17;103096.25;;;5.07;100.00
75414;BME280;64758;52.122;5.404;2022-12-01T04:10:44;103093.63;;;5.07;100.00
75414;BME280;64758;52.122;5.404;2022-12-01T04:13:10;103081.50;;;5.05;100.00
75414;BME280;64758;52.122;5.404;2022-12-01T04:15:49;103085.28;;;5.01;100.00
75414;BME280;64758;52.122;5.404;2022-12-01T04:18:16;103089.88;;;4.97;100.00
75414;BME280;64758;52.122;5.404;2022-12-01T04:20:47;103090.91;;;4.95;100.00
75414;BME280;64758;52.122;5.404;2022-12-01T04:23:14;103093.56;;;4.95;100.00
75414;BME280;64758;52.122;5.404;2022-12-01T04:26:03;103104.16;;;4.94;100.00
75414;BME280;64758;52.122;5.404;2022-12-01T04:28:30;103090.06;;;4.95;100.00
75414;BME280;64758;52.122;5.404;2022-12-01T04:30:56;103094.50;;;4.94;100.00
75414;BME280;64758;52.122;5.404;2022-12-01T04:33:23;103100.78;;;4.92;100.00
75414;BME280;64758;52.122;5.404;2022-12-01T04:35:59;103092.88;;;4.92;100.00
75414;BME280;64758;52.122;5.404;2022-12-01T04:38:26;103111.31;;;4.92;100.00
75414;BME280;64758;52.122;5.404;2022-12-01T04:40:56;103100.69;;;4.93;100.00
75414;BME280;64758;52.122;5.404;2022-12-01T04:43:23;103103.31;;;4.93;100.00
75414;BME280;64758;52.122;5.404;2022-12-01T04:45:49;103102.59;;;4.91;100.00
75414;BME280;64758;52.122;5.404;2022-12-01T04:48:15;103093.63;;;4.94;100.00
75414;BME280;64758;52.122;5.404;2022-12-01T04:50:42;103105.97;;;4.93;100.00
75414;BME280;64758;52.122;5.404;2022-12-01T04:53:08;103087.72;;;4.90;100.00
75414;BME280;64758;52.122;5.404;2022-12-01T04:55:36;103107.72;;;4.93;100.00
75414;BME280;64758;52.122;5.404;2022-12-01T04:58:04;103099.75;;;4.94;100.00
75414;BME280;64758;52.122;5.404;2022-12-01T05:00:31;103093.56;;;4.95;100.00
75414;BME280;64758;52.122;5.404;2022-12-01T05:02:58;103090.16;;;4.93;100.00
75414;BME280;64758;52.122;5.404;2022-12-01T05:05:25;103090.06;;;4.95;100.00
75414;BME280;64758;52.122;5.404;2022-12-01T05:07:51;103089.03;;;4.97;100.00
75414;BME280;64758;52.122;5.404;2022-12-01T05:10:18;103095.25;;;4.96;100.00
75414;BME280;64758;52.122;5.404;2022-12-01T05:12:45;103097.38;;;4.90;100.00
75414;BME280;64758;52.122;5.404;2022-12-01T05:15:12;103101.81;;;4.89;100.00
75414;BME280;64758;52.122;5.404;2022-12-01T05:17:38;103101.16;;;4.86;100.00
75414;BME280;64758;52.122;5.404;2022-12-01T05:20:06;103100.41;;;4.84;100.00
75414;BME280;64758;52.122;5.404;2022-12-01T05:22:51;103096.44;;;4.77;100.00
75414;BME280;64758;52.122;5.404;2022-12-01T05:25:37;103105.97;;;4.79;100.00
75414;BME280;64758;52.122;5.404;2022-12-01T05:28:04;103100.03;;;4.76;100.00
75414;BME280;64758;52.122;5.404;2022-12-01T05:30:30;103107.34;;;4.71;100.00
75414;BME280;64758;52.122;5.404;2022-12-01T05:32:57;103114.28;;;4.58;100.00
75414;BME280;64758;52.122;5.404;2022-12-01T05:35:23;103117.09;;;4.55;100.00
75414;BME280;64758;52.122;5.404;2022-12-01T05:37:49;103127.81;;;4.52;100.00
75414;BME280;64758;52.122;5.404;2022-12-01T05:40:16;103107.13;;;4.46;100.00
75414;BME280;64758;52.122;5.404;2022-12-01T05:42:42;103110.53;;;4.48;100.00
75414;BME280;64758;52.122;5.404;2022-12-01T05:45:09;103107.69;;;4.51;100.00
75414;BME280;64758;52.122;5.404;2022-12-01T05:47:36;103112.78;;;4.54;100.00
75414;BME280;64758;52.122;5.404;2022-12-01T05:50:02;103104.06;;;4.53;100.00
75414;BME280;64758;52.122;5.404;2022-12-01T05:52:33;103111.66;;;4.58;100.00
75414;BME280;64758;52.122;5.404;2022-12-01T05:55:01;103115.97;;;4.59;100.00
75414;BME280;64758;52.122;5.404;2022-12-01T05:57:28;103114.09;;;4.61;100.00
75414;BME280;64758;52.122;5.404;2022-12-01T05:59:54;103119.19;;;4.64;100.00
75414;BME280;64758;52.122;5.404;2022-12-01T06:02:21;103112.03;;;4.66;100.00
75414;BME280;64758;52.122;5.404;2022-12-01T06:04:48;103103.41;;;4.64;100.00
75414;BME280;64758;52.122;5.404;2022-12-01T06:07:14;103106.72;;;4.67;100.00
75414;BME280;64758;52.122;5.404;2022-12-01T06:09:41;103107.72;;;4.65;100.00
75414;BME280;64758;52.122;5.404;2022-12-01T06:12:07;103092.22;;;4.60;100.00
75414;BME280;64758;52.122;5.404;2022-12-01T06:14:33;103105.47;;;4.59;100.00
75414;BME280;64758;52.122;5.404;2022-12-01T06:17:00;103105.00;;;4.52;100.00
75414;BME280;64758;52.122;5.404;2022-12-01T06:19:26;103106.94;;;4.49;100.00
75414;BME280;64758;52.122;5.404;2022-12-01T06:21:53;103106.84;;;4.36;100.00
75414;BME280;64758;52.122;5.404;2022-12-01T06:24:19;103122.50;;;4.24;100.00
75414;BME280;64758;52.122;5.404;2022-12-01T06:26:46;103114.31;;;4.14;100.00
75414;BME280;64758;52.122;5.404;2022-12-01T06:29:12;103116.34;;;4.09;100.00
75414;BME280;64758;52.122;5.404;2022-12-01T06:31:39;103112.38;;;4.02;100.00
75414;BME280;64758;52.122;5.404;2022-12-01T06:34:05;103111.69;;;3.99;100.00
75414;BME280;64758;52.122;5.404;2022-12-01T06:36:32;103124.25;;;3.94;100.00
75414;BME280;64758;52.122;5.404;2022-12-01T06:38:59;103110.88;;;3.83;100.00
75414;BME280;64758;52.122;5.404;2022-12-01T06:41:25;103110.41;;;3.76;100.00
75414;BME280;64758;52.122;5.404;2022-12-01T06:43:51;103115.59;;;3.78;100.00
75414;BME280;64758;52.122;5.404;2022-12-01T06:46:18;103126.34;;;3.73;100.00
75414;BME280;64758;52.122;5.404;2022-12-01T06:48:47;103124.06;;;3.68;100.00
75414;BME280;64758;52.122;5.404;2022-12-01T06:51:14;103124.91;;;3.68;100.00
75414;BME280;64758;52.122;5.404;2022-12-01T06:53:40;103125.16;;;3.64;100.00
75414;BME280;64758;52.122;5.404;2022-12-01T06:56:07;103122.63;;;3.62;100.00
75414;BME280;64758;52.122;5.404;2022-12-01T06:58:34;103140.59;;;3.54;100.00
75414;BME280;64758;52.122;5.404;2022-12-01T07:01:07;103134.00;;;3.47;100.00
75414;BME280;64758;52.122;5.404;2022-12-01T07:03:34;103136.78;;;3.44;100.00
75414;BME280;64758;52.122;5.404;2022-12-01T07:06:01;103138.47;;;3.30;100.00
75414;BME280;64758;52.122;5.404;2022-12-01T07:08:29;103142.44;;;3.21;100.00
75414;BME280;64758;52.122;5.404;2022-12-01T07:10:57;103146.66;;;3.24;100.00
75414;BME280;64758;52.122;5.404;2022-12-01T07:13:24;103142.63;;;3.18;100.00
75414;BME280;64758;52.122;5.404;2022-12-01T07:15:58;103140.16;;;3.15;100.00
75414;BME280;64758;52.122;5.404;2022-12-01T07:18:24;103156.56;;;3.19;100.00
75414;BME280;64758;52.122;5.404;2022-12-01T07:20:51;103161.06;;;3.17;100.00
75414;BME280;64758;52.122;5.404;2022-12-01T07:23:17;103159.28;;;3.17;100.00
75414;BME280;64758;52.122;5.404;2022-12-01T07:25:44;103161.91;;;3.17;100.00
75414;BME280;64758;52.122;5.404;2022-12-01T07:28:10;103172.25;;;3.20;100.00
75414;BME280;64758;52.122;5.404;2022-12-01T07:30:37;103169.69;;;3.19;100.00
75414;BME280;64758;52.122;5.404;2022-12-01T07:33:04;103173.94;;;3.21;100.00
75414;BME280;64758;52.122;5.404;2022-12-01T07:35:30;103175.72;;;3.21;100.00
75414;BME280;64758;52.122;5.404;2022-12-01T07:37:57;103183.84;;;3.16;100.00
75414;BME280;64758;52.122;5.404;2022-12-01T07:40:23;103184.94;;;3.12;100.00
75414;BME280;64758;52.122;5.404;2022-12-01T07:42:50;103186.81;;;3.10;100.00
75414;BME280;64758;52.122;5.404;2022-12-01T07:45:16;103180.38;;;3.16;100.00
75414;BME280;64758;52.122;5.404;2022-12-01T07:47:43;103189.09;;;3.16;100.00
75414;BME280;64758;52.122;5.404;2022-12-01T07:50:10;103189.16;;;3.15;100.00
75414;BME280;64758;52.122;5.404;2022-12-01T07:52:37;103182.91;;;3.17;100.00
75414;BME280;64758;52.122;5.404;2022-12-01T07:55:03;103176.66;;;3.20;100.00
75414;BME280;64758;52.122;5.404;2022-12-01T07:57:30;103194.47;;;3.30;100.00
75414;BME280;64758;52.122;5.404;2022-12-01T07:59:56;103189.88;;;3.34;100.00
75414;BME280;64758;52.122;5.404;2022-12-01T08:02:23;103195.56;;;3.42;100.00
75414;BME280;64758;52.122;5.404;2022-12-01T08:04:49;103192.72;;;3.46;100.00
75414;BME280;64758;52.122;5.404;2022-12-01T08:07:16;103195.59;;;3.57;100.00
75414;BME280;64758;52.122;5.404;2022-12-01T08:09:42;103189.25;;;3.61;100.00
75414;BME280;64758;52.122;5.404;2022-12-01T08:12:10;103188.75;;;3.70;100.00
75414;BME280;64758;52.122;5.404;2022-12-01T08:14:36;103193.50;;;3.79;100.00
75414;BME280;64758;52.122;5.404;2022-12-01T08:17:03;103189.38;;;3.89;100.00
75414;BME280;64758;52.122;5.404;2022-12-01T08:19:29;103195.16;;;3.95;100.00
75414;BME280;64758;52.122;5.404;2022-12-01T08:21:56;103195.59;;;4.03;100.00
75414;BME280;64758;52.122;5.404;2022-12-01T08:24:22;103191.41;;;4.15;100.00
75414;BME280;64758;52.122;5.404;2022-12-01T08:26:49;103193.69;;;4.21;100.00
75414;BME280;64758;52.122;5.404;2022-12-01T08:29:15;103204.78;;;4.26;100.00
75414;BME280;64758;52.122;5.404;2022-12-01T08:31:45;103202.66;;;4.32;100.00
75414;BME280;64758;52.122;5.404;2022-12-01T08:34:12;103210.19;;;4.38;100.00
75414;BME280;64758;52.122;5.404;2022-12-01T08:36:39;103209.91;;;4.43;100.00
75414;BME280;64758;52.122;5.404;2022-12-01T08:39:06;103201.78;;;4.47;100.00
75414;BME280;64758;52.122;5.404;2022-12-01T08:41:33;103208.44;;;4.53;100.00
75414;BME280;64758;52.122;5.404;2022-12-01T08:44:00;103209.13;;;4.56;100.00
75414;BME280;64758;52.122;5.404;2022-12-01T08:46:30;103204.34;;;4.63;100.00
75414;BME280;64758;52.122;5.404;2022-12-01T08:48:58;103209.34;;;4.67;100.00
75414;BME280;64758;52.122;5.404;2022-12-01T08:51:25;103206.44;;;4.72;100.00
75414;BME280;64758;52.122;5.404;2022-12-01T08:53:53;103210.75;;;4.73;100.00
75414;BME280;64758;52.122;5.404;2022-12-01T08:56:29;103212.28;;;4.77;100.00
75414;BME280;64758;52.122;5.404;2022-12-01T08:58:56;103215.41;;;4.83;100.00
75414;BME280;64758;52.122;5.404;2022-12-01T09:01:23;103205.06;;;4.80;100.00
75414;BME280;64758;52.122;5.404;2022-12-01T09:03:51;103203.81;;;4.86;100.00
75414;BME280;64758;52.122;5.404;2022-12-01T09:06:39;103207.78;;;4.93;100.00
75414;BME280;64758;52.122;5.404;2022-12-01T09:09:11;103212.88;;;4.96;100.00
75414;BME280;64758;52.122;5.404;2022-12-01T09:11:39;103215.44;;;4.97;100.00
75414;BME280;64758;52.122;5.404;2022-12-01T09:14:06;103203.00;;;4.99;100.00
75414;BME280;64758;52.122;5.404;2022-12-01T09:16:32;103209.03;;;5.01;100.00
75414;BME280;64758;52.122;5.404;2022-12-01T09:18:59;103213.94;;;5.07;100.00
75414;BME280;64758;52.122;5.404;2022-12-01T09:21:28;103201.53;;;5.09;100.00
75414;BME280;64758;52.122;5.404;2022-12-01T09:23:59;103203.28;;;5.08;100.00
75414;BME280;64758;52.122;5.404;2022-12-01T09:26:26;103217.41;;;5.07;100.00
75414;BME280;64758;52.122;5.404;2022-12-01T09:28:56;103204.22;;;5.07;100.00
75414;BME280;64758;52.122;5.404;2022-12-01T09:31:23;103208.25;;;5.13;100.00
75414;BME280;64758;52.122;5.404;2022-12-01T09:34:01;103205.56;;;5.14;100.00
75414;BME280;64758;52.122;5.404;2022-12-01T09:36:29;103206.31;;;5.16;100.00
75414;BME280;64758;52.122;5.404;2022-12-01T09:38:56;103203.38;;;5.21;100.00
75414;BME280;64758;52.122;5.404;2022-12-01T09:41:27;103207.31;;;5.28;100.00
75414;BME280;64758;52.122;5.404;2022-12-01T09:47:04;103198.97;;;5.35;100.00
75414;BME280;64758;52.122;5.404;2022-12-01T09:49:45;103204.78;;;5.40;100.00
75414;BME280;64758;52.122;5.404;2022-12-01T09:52:16;103193.00;;;5.46;100.00
75414;BME280;64758;52.122;5.404;2022-12-01T09:54:45;103183.78;;;5.53;100.00
75414;BME280;64758;52.122;5.404;2022-12-01T09:57:34;103182.38;;;5.61;100.00
75414;BME280;64758;52.122;5.404;2022-12-01T10:00:15;103176.25;;;5.61;100.00
75414;BME280;64758;52.122;5.404;2022-12-01T10:03:05;103178.28;;;5.70;100.00
75414;BME280;64758;52.122;5.404;2022-12-01T10:05:58;103162.19;;;5.74;100.00
75414;BME280;64758;52.122;5.404;2022-12-01T10:08:59;103159.28;;;5.79;100.00
75414;BME280;64758;52.122;5.404;2022-12-01T10:11:50;103164.34;;;5.82;100.00
75414;BME280;64758;52.122;5.404;2022-12-01T10:14:18;103163.22;;;5.86;100.00
75414;BME280;64758;52.122;5.404;2022-12-01T10:19:27;103162.19;;;5.88;100.00
75414;BME280;64758;52.122;5.404;2022-12-01T10:25:14;103173.31;;;6.06;100.00
75414;BME280;64758;52.122;5.404;2022-12-01T10:30:34;103180.94;;;6.10;100.00
75414;BME280;64758;52.122;5.404;2022-12-01T10:33:16;103172.91;;;6.12;100.00
75414;BME280;64758;52.122;5.404;2022-12-01T10:35:46;103172.50;;;6.05;100.00
75414;BME280;64758;52.122;5.404;2022-12-01T10:38:23;103166.47;;;6.03;100.00
75414;BME280;64758;52.122;5.404;2022-12-01T10:40:51;103177.16;;;6.14;100.00
75414;BME280;64758;52.122;5.404;2022-12-01T10:43:28;103174.31;;;6.17;100.00
75414;BME280;64758;52.122;5.404;2022-12-01T10:45:59;103179.59;;;6.17;100.00
75414;BME280;64758;52.122;5.404;2022-12-01T10:48:29;103176.31;;;6.14;99.41
75414;BME280;64758;52.122;5.404;2022-12-01T10:51:13;103177.38;;;6.11;99.46
75414;BME280;64758;52.122;5.404;2022-12-01T10:53:40;103181.09;;;6.21;99.85
75414;BME280;64758;52.122;5.404;2022-12-01T10:56:15;103170.22;;;6.26;99.80
75414;BME280;64758;52.122;5.404;2022-12-01T10:58:52;103171.09;;;6.26;99.19
75414;BME280;64758;52.122;5.404;2022-12-01T11:01:24;103176.56;;;6.23;98.52
75414;BME280;64758;52.122;5.404;2022-12-01T11:03:54;103165.81;;;6.26;98.90
75414;BME280;64758;52.122;5.404;2022-12-01T11:06:27;103165.81;;;6.26;98.59
75414;BME280;64758;52.122;5.404;2022-12-01T11:09:00;103162.41;;;6.24;98.33
75414;BME280;64758;52.122;5.404;2022-12-01T11:11:38;103156.00;;;6.28;98.53
75414;BME280;64758;52.122;5.404;2022-12-01T11:14:33;103158.31;;;6.32;97.97
75414;BME280;64758;52.122;5.404;2022-12-01T11:17:15;103158.03;;;6.37;97.74
75414;BME280;64758;52.122;5.404;2022-12-01T11:19:42;103153.69;;;6.36;97.01
75414;BME280;64758;52.122;5.404;2022-12-01T11:27:22;103161.81;;;6.45;97.48
75414;BME280;64758;52.122;5.404;2022-12-01T11:29:55;103147.88;;;6.56;96.36
75414;BME280;64758;52.122;5.404;2022-12-01T11:32:28;103147.06;;;6.68;96.12
75414;BME280;64758;52.122;5.404;2022-12-01T11:35:00;103142.75;;;6.79;95.62
75414;BME280;64758;52.122;5.404;2022-12-01T11:37:37;103137.78;;;6.87;94.69
75414;BME280;64758;52.122;5.404;2022-12-01T11:40:17;103125.31;;;6.89;93.89
75414;BME280;64758;52.122;5.404;2022-12-01T11:42:48;103133.09;;;6.91;92.91
75414;BME280;64758;52.122;5.404;2022-12-01T11:50:34;103132.06;;;6.93;92.37
75414;BME280;64758;52.122;5.404;2022-12-01T11:53:02;103123.63;;;6.88;92.01
75414;BME280;64758;52.122;5.404;2022-12-01T11:55:30;103122.88;;;6.86;92.11
75414;BME280;64758;52.122;5.404;2022-12-01T11:58:00;103118.84;;;6.81;91.85
75414;BME280;64758;52.122;5.404;2022-12-01T12:00:37;103109.88;;;6.83;92.70
75414;BME280;64758;52.122;5.404;2022-12-01T12:03:20;103117.25;;;6.91;92.71
75414;BME280;64758;52.122;5.404;2022-12-01T12:12:06;103110.19;;;6.79;92.21
75414;BME280;64758;52.122;5.404;2022-12-01T12:20:39;103107.13;;;6.47;91.52
75414;BME280;64758;52.122;5.404;2022-12-01T12:26:34;103107.97;;;6.48;92.85
75414;BME280;64758;52.122;5.404;2022-12-01T12:34:28;103103.34;;;6.76;91.91
75414;BME280;64758;52.122;5.404;2022-12-01T12:40:02;103101.84;;;6.85;90.18
75414;BME280;64758;52.122;5.404;2022-12-01T12:45:12;103088.13;;;6.92;90.43
75414;BME280;64758;52.122;5.404;2022-12-01T12:47:48;103093.06;;;6.97;90.02
75414;BME280;64758;52.122;5.404;2022-12-01T12:50:35;103094.00;;;6.96;88.91
75414;BME280;64758;52.122;5.404;2022-12-01T12:53:10;103086.00;;;6.97;89.06
75414;BME280;64758;52.122;5.404;2022-12-01T12:55:43;103091.28;;;6.97;89.21
75414;BME280;64758;52.122;5.404;2022-12-01T13:01:00;103078.03;;;7.10;89.45
75414;BME280;64758;52.122;5.404;2022-12-01T13:06:09;103079.28;;;7.17;88.59
75414;BME280;64758;52.122;5.404;2022-12-01T13:11:24;103080.25;;;7.16;88.27
75414;BME280;64758;52.122;5.404;2022-12-01T13:14:01;103081.97;;;7.04;87.76
75414;BME280;64758;52.122;5.404;2022-12-01T13:16:49;103071.41;;;6.92;88.84
75414;BME280;64758;52.122;5.404;2022-12-01T13:19:21;103087.06;;;6.82;89.43
75414;BME280;64758;52.122;5.404;2022-12-01T13:21:51;103075.84;;;6.79;89.93
75414;BME280;64758;52.122;5.404;2022-12-01T13:24:20;103079.03;;;6.84;89.64
75414;BME280;64758;52.122;5.404;2022-12-01T13:26:59;103084.94;;;6.87;89.26
75414;BME280;64758;52.122;5.404;2022-12-01T13:29:32;103080.50;;;6.88;88.40
75414;BME280;64758;52.122;5.404;2022-12-01T13:32:00;103076.06;;;6.88;89.16
75414;BME280;64758;52.122;5.404;2022-12-01T13:34:36;103077.53;;;6.92;88.87
75414;BME280;64758;52.122;5.404;2022-12-01T13:37:04;103067.81;;;6.93;89.11
75414;BME280;64758;52.122;5.404;2022-12-01T13:39:32;103071.41;;;6.92;89.84
75414;BME280;64758;52.122;5.404;2022-12-01T13:42:07;103072.91;;;6.83;89.07
75414;BME280;64758;52.122;5.404;2022-12-01T13:45:09;103072.81;;;6.72;88.92
75414;BME280;64758;52.122;5.404;2022-12-01T13:53:25;103077.03;;;6.75;89.78
75414;BME280;64758;52.122;5.404;2022-12-01T14:08:57;103050.31;;;6.67;89.16
75414;BME280;64758;52.122;5.404;2022-12-01T14:11:26;103059.50;;;6.61;89.08
75414;BME280;64758;52.122;5.404;2022-12-01T14:14:09;103055.59;;;6.54;88.60
75414;BME280;64758;52.122;5.404;2022-12-01T14:21:54;103051.38;;;6.39;88.91
75414;BME280;64758;52.122;5.404;2022-12-01T14:26:59;103041.16;;;6.35;89.23
75414;BME280;64758;52.122;5.404;2022-12-01T14:34:22;103051.47;;;6.26;90.12
75414;BME280;64758;52.122;5.404;2022-12-01T14:36:56;103045.78;;;6.19;90.04
75414;BME280;64758;52.122;5.404;2022-12-01T14:39:27;103055.59;;;6.17;89.94
75414;BME280;64758;52.122;5.404;2022-12-01T14:42:00;103054.94;;;6.14;90.08
75414;BME280;64758;52.122;5.404;2022-12-01T14:44:34;103050.94;;;6.08;90.55
75414;BME280;64758;52.122;5.404;2022-12-01T14:49:42;103062.13;;;5.99;91.28
75414;BME280;64758;52.122;5.404;2022-12-01T14:52:19;103063.16;;;5.97;91.53
75414;BME280;64758;52.122;5.404;2022-12-01T14:54:50;103061.66;;;5.93;91.42
75414;BME280;64758;52.122;5.404;2022-12-01T14:57:22;103062.72;;;5.90;91.94
75414;BME280;64758;52.122;5.404;2022-12-01T15:00:10;103061.44;;;5.83;91.40